sensor_id;sensor_type;location;lat;lon;timestamp;P1;durP1;ratioP1;P2;durP2;ratioP2
71777;SDS011;59609;52.430;4.668;2023-08-24T00:01:06;7.88;;;3.90;;
71777;SDS011;59609;52.430;4.668;2023-08-24T00:03:34;9.57;;;4.25;;
71777;SDS011;59609;52.430;4.668;2023-08-24T00:05:59;10.32;;;4.20;;
71777;SDS011;59609;52.430;4.668;2023-08-24T00:08:25;9.48;;;3.90;;
71777;SDS011;59609;52.430;4.668;2023-08-24T00:10:51;6.93;;;4.07;;
71777;SDS011;59609;52.430;4.668;2023-08-24T00:13:16;9.80;;;4.65;;
71777;SDS011;59609;52.430;4.668;2023-08-24T00:15:41;7.18;;;4.00;;
71777;SDS011;59609;52.430;4.668;2023-08-24T00:18:07;8.85;;;4.00;;
71777;SDS011;59609;52.430;4.668;2023-08-24T00:20:33;9.85;;;3.90;;
71777;SDS011;59609;52.430;4.668;2023-08-24T00:22:58;7.97;;;4.88;;
71777;SDS011;59609;52.430;4.668;2023-08-24T00:25:25;7.20;;;4.35;;
71777;SDS011;59609;52.430;4.668;2023-08-24T00:27:52;5.50;;;3.97;;
71777;SDS011;59609;52.430;4.668;2023-08-24T00:30:18;7.45;;;4.18;;
71777;SDS011;59609;52.430;4.668;2023-08-24T00:32:43;10.88;;;4.43;;
71777;SDS011;59609;52.430;4.668;2023-08-24T00:35:09;9.55;;;4.72;;
71777;SDS011;59609;52.430;4.668;2023-08-24T00:37:35;8.82;;;4.15;;
71777;SDS011;59609;52.430;4.668;2023-08-24T00:40:04;7.57;;;4.00;;
71777;SDS011;59609;52.430;4.668;2023-08-24T00:42:36;11.80;;;4.72;;
71777;SDS011;59609;52.430;4.668;2023-08-24T00:45:06;7.57;;;4.70;;
71777;SDS011;59609;52.430;4.668;2023-08-24T00:47:32;10.40;;;5.18;;
71777;SDS011;59609;52.430;4.668;2023-08-24T00:50:01;8.98;;;4.97;;
71777;SDS011;59609;52.430;4.668;2023-08-24T00:52:28;7.72;;;5.15;;
71777;SDS011;59609;52.430;4.668;2023-08-24T00:54:58;9.63;;;4.90;;
71777;SDS011;59609;52.430;4.668;2023-08-24T00:57:25;9.70;;;4.72;;
71777;SDS011;59609;52.430;4.668;2023-08-24T00:59:51;11.32;;;5.35;;
71777;SDS011;59609;52.430;4.668;2023-08-24T01:02:17;10.27;;;5.80;;
71777;SDS011;59609;52.430;4.668;2023-08-24T01:04:42;8.30;;;5.03;;
71777;SDS011;59609;52.430;4.668;2023-08-24T01:07:08;7.18;;;4.10;;
71777;SDS011;59609;52.430;4.668;2023-08-24T01:09:35;7.53;;;4.63;;
71777;SDS011;59609;52.430;4.668;2023-08-24T01:17:44;7.85;;;4.40;;
71777;SDS011;59609;52.430;4.668;2023-08-24T01:20:11;8.73;;;4.20;;
71777;SDS011;59609;52.430;4.668;2023-08-24T01:22:53;6.70;;;4.38;;
71777;SDS011;59609;52.430;4.668;2023-08-24T01:28:16;6.65;;;3.63;;
71777;SDS011;59609;52.430;4.668;2023-08-24T01:30:45;8.15;;;4.53;;
71777;SDS011;59609;52.430;4.668;2023-08-24T01:33:11;6.65;;;3.65;;
71777;SDS011;59609;52.430;4.668;2023-08-24T01:35:37;9.60;;;4.10;;
71777;SDS011;59609;52.430;4.668;2023-08-24T01:38:03;8.75;;;5.25;;
71777;SDS011;59609;52.430;4.668;2023-08-24T01:43:25;6.63;;;4.13;;
71777;SDS011;59609;52.430;4.668;2023-08-24T01:45:55;7.45;;;4.30;;
71777;SDS011;59609;52.430;4.668;2023-08-24T01:48:23;10.13;;;4.88;;
71777;SDS011;59609;52.430;4.668;2023-08-24T01:50:50;9.82;;;4.53;;
71777;SDS011;59609;52.430;4.668;2023-08-24T01:53:16;8.02;;;4.28;;
71777;SDS011;59609;52.430;4.668;2023-08-24T01:55:42;9.10;;;5.60;;
71777;SDS011;59609;52.430;4.668;2023-08-24T01:58:08;9.15;;;4.70;;
71777;SDS011;59609;52.430;4.668;2023-08-24T02:00:33;10.23;;;4.82;;
71777;SDS011;59609;52.430;4.668;2023-08-24T02:02:59;7.30;;;4.65;;
71777;SDS011;59609;52.430;4.668;2023-08-24T02:05:25;8.77;;;4.07;;
71777;SDS011;59609;52.430;4.668;2023-08-24T02:07:52;7.63;;;3.92;;
71777;SDS011;59609;52.430;4.668;2023-08-24T02:10:19;6.63;;;3.60;;
71777;SDS011;59609;52.430;4.668;2023-08-24T02:12:44;8.73;;;6.20;;
71777;SDS011;59609;52.430;4.668;2023-08-24T02:15:10;8.07;;;4.45;;
71777;SDS011;59609;52.430;4.668;2023-08-24T02:17:35;6.55;;;4.78;;
71777;SDS011;59609;52.430;4.668;2023-08-24T02:20:01;10.80;;;3.95;;
71777;SDS011;59609;52.430;4.668;2023-08-24T02:22:28;7.63;;;3.60;;
71777;SDS011;59609;52.430;4.668;2023-08-24T02:24:54;8.38;;;3.92;;
71777;SDS011;59609;52.430;4.668;2023-08-24T02:27:19;8.65;;;3.65;;
71777;SDS011;59609;52.430;4.668;2023-08-24T02:29:44;8.95;;;3.85;;
71777;SDS011;59609;52.430;4.668;2023-08-24T02:32:10;7.28;;;3.72;;
71777;SDS011;59609;52.430;4.668;2023-08-24T02:34:35;5.78;;;3.58;;
71777;SDS011;59609;52.430;4.668;2023-08-24T02:37:01;5.40;;;3.63;;
71777;SDS011;59609;52.430;4.668;2023-08-24T02:39:26;5.70;;;3.45;;
71777;SDS011;59609;52.430;4.668;2023-08-24T02:41:52;8.65;;;4.38;;
71777;SDS011;59609;52.430;4.668;2023-08-24T02:44:17;7.63;;;4.43;;
71777;SDS011;59609;52.430;4.668;2023-08-24T02:46:47;6.68;;;3.80;;
71777;SDS011;59609;52.430;4.668;2023-08-24T02:49:13;6.80;;;4.07;;
71777;SDS011;59609;52.430;4.668;2023-08-24T02:51:38;10.57;;;4.30;;
71777;SDS011;59609;52.430;4.668;2023-08-24T02:54:04;7.00;;;3.83;;
71777;SDS011;59609;52.430;4.668;2023-08-24T02:56:30;9.73;;;4.35;;
71777;SDS011;59609;52.430;4.668;2023-08-24T02:58:55;6.35;;;4.35;;
71777;SDS011;59609;52.430;4.668;2023-08-24T03:01:21;5.85;;;4.28;;
71777;SDS011;59609;52.430;4.668;2023-08-24T03:03:47;8.82;;;4.60;;
71777;SDS011;59609;52.430;4.668;2023-08-24T03:06:12;7.00;;;4.18;;
71777;SDS011;59609;52.430;4.668;2023-08-24T03:08:37;8.68;;;4.25;;
71777;SDS011;59609;52.430;4.668;2023-08-24T03:11:03;6.80;;;4.05;;
71777;SDS011;59609;52.430;4.668;2023-08-24T03:13:28;8.23;;;4.88;;
71777;SDS011;59609;52.430;4.668;2023-08-24T03:15:55;6.18;;;3.88;;
71777;SDS011;59609;52.430;4.668;2023-08-24T03:18:20;8.70;;;4.57;;
71777;SDS011;59609;52.430;4.668;2023-08-24T03:20:47;7.30;;;4.30;;
71777;SDS011;59609;52.430;4.668;2023-08-24T03:23:14;8.13;;;5.15;;
71777;SDS011;59609;52.430;4.668;2023-08-24T03:25:42;6.60;;;4.40;;
71777;SDS011;59609;52.430;4.668;2023-08-24T03:28:08;6.38;;;4.40;;
71777;SDS011;59609;52.430;4.668;2023-08-24T03:30:35;9.02;;;4.65;;
71777;SDS011;59609;52.430;4.668;2023-08-24T03:33:01;7.70;;;4.75;;
71777;SDS011;59609;52.430;4.668;2023-08-24T03:35:28;8.38;;;4.70;;
71777;SDS011;59609;52.430;4.668;2023-08-24T03:37:55;8.73;;;4.70;;
71777;SDS011;59609;52.430;4.668;2023-08-24T03:40:20;9.85;;;5.32;;
71777;SDS011;59609;52.430;4.668;2023-08-24T03:42:46;9.75;;;4.53;;
71777;SDS011;59609;52.430;4.668;2023-08-24T03:45:11;12.75;;;5.80;;
71777;SDS011;59609;52.430;4.668;2023-08-24T03:47:36;10.32;;;4.93;;
71777;SDS011;59609;52.430;4.668;2023-08-24T03:50:02;9.40;;;4.65;;
71777;SDS011;59609;52.430;4.668;2023-08-24T03:52:27;9.45;;;5.00;;
71777;SDS011;59609;52.430;4.668;2023-08-24T03:54:53;8.57;;;4.57;;
71777;SDS011;59609;52.430;4.668;2023-08-24T03:57:18;6.75;;;4.57;;
71777;SDS011;59609;52.430;4.668;2023-08-24T03:59:44;9.60;;;5.22;;
71777;SDS011;59609;52.430;4.668;2023-08-24T04:02:09;9.52;;;5.32;;
71777;SDS011;59609;52.430;4.668;2023-08-24T04:04:34;8.10;;;4.95;;
71777;SDS011;59609;52.430;4.668;2023-08-24T04:07:00;10.13;;;5.22;;
71777;SDS011;59609;52.430;4.668;2023-08-24T04:09:27;8.60;;;4.57;;
71777;SDS011;59609;52.430;4.668;2023-08-24T04:11:52;10.90;;;5.45;;
71777;SDS011;59609;52.430;4.668;2023-08-24T04:14:18;10.32;;;5.90;;
71777;SDS011;59609;52.430;4.668;2023-08-24T04:16:43;9.80;;;5.15;;
71777;SDS011;59609;52.430;4.668;2023-08-24T04:19:08;9.10;;;4.85;;
71777;SDS011;59609;52.430;4.668;2023-08-24T04:21:34;10.23;;;5.20;;
71777;SDS011;59609;52.430;4.668;2023-08-24T04:24:00;10.75;;;5.57;;
71777;SDS011;59609;52.430;4.668;2023-08-24T04:26:25;14.13;;;6.60;;
71777;SDS011;59609;52.430;4.668;2023-08-24T04:28:51;10.43;;;5.50;;
71777;SDS011;59609;52.430;4.668;2023-08-24T04:31:17;9.02;;;5.57;;
71777;SDS011;59609;52.430;4.668;2023-08-24T04:33:42;13.27;;;5.93;;
71777;SDS011;59609;52.430;4.668;2023-08-24T04:36:08;11.50;;;6.40;;
71777;SDS011;59609;52.430;4.668;2023-08-24T04:38:34;12.18;;;5.78;;
71777;SDS011;59609;52.430;4.668;2023-08-24T04:40:59;14.82;;;6.43;;
71777;SDS011;59609;52.430;4.668;2023-08-24T04:43:25;9.77;;;5.72;;
71777;SDS011;59609;52.430;4.668;2023-08-24T04:45:52;10.30;;;6.43;;
71777;SDS011;59609;52.430;4.668;2023-08-24T04:48:18;11.55;;;6.10;;
71777;SDS011;59609;52.430;4.668;2023-08-24T04:50:47;9.88;;;6.18;;
71777;SDS011;59609;52.430;4.668;2023-08-24T04:53:14;12.48;;;6.40;;
71777;SDS011;59609;52.430;4.668;2023-08-24T04:55:43;12.50;;;6.72;;
71777;SDS011;59609;52.430;4.668;2023-08-24T04:58:09;10.23;;;6.68;;
71777;SDS011;59609;52.430;4.668;2023-08-24T05:00:36;10.93;;;6.50;;
71777;SDS011;59609;52.430;4.668;2023-08-24T05:03:03;12.20;;;6.90;;
71777;SDS011;59609;52.430;4.668;2023-08-24T05:05:30;14.95;;;7.68;;
71777;SDS011;59609;52.430;4.668;2023-08-24T05:07:57;12.80;;;7.43;;
71777;SDS011;59609;52.430;4.668;2023-08-24T05:10:23;13.95;;;7.88;;
71777;SDS011;59609;52.430;4.668;2023-08-24T05:12:49;11.52;;;7.43;;
71777;SDS011;59609;52.430;4.668;2023-08-24T05:15:14;13.88;;;7.72;;
71777;SDS011;59609;52.430;4.668;2023-08-24T05:17:40;12.32;;;7.38;;
71777;SDS011;59609;52.430;4.668;2023-08-24T05:20:08;13.85;;;7.63;;
71777;SDS011;59609;52.430;4.668;2023-08-24T05:22:35;15.23;;;9.40;;
71777;SDS011;59609;52.430;4.668;2023-08-24T05:25:01;15.48;;;8.43;;
71777;SDS011;59609;52.430;4.668;2023-08-24T05:27:27;19.00;;;9.50;;
71777;SDS011;59609;52.430;4.668;2023-08-24T05:29:52;15.63;;;7.97;;
71777;SDS011;59609;52.430;4.668;2023-08-24T05:32:18;15.20;;;8.30;;
71777;SDS011;59609;52.430;4.668;2023-08-24T05:34:44;14.50;;;7.72;;
71777;SDS011;59609;52.430;4.668;2023-08-24T05:37:10;15.07;;;7.93;;
71777;SDS011;59609;52.430;4.668;2023-08-24T05:39:36;15.40;;;8.60;;
71777;SDS011;59609;52.430;4.668;2023-08-24T05:42:01;14.95;;;7.78;;
71777;SDS011;59609;52.430;4.668;2023-08-24T05:44:26;16.00;;;8.50;;
71777;SDS011;59609;52.430;4.668;2023-08-24T05:46:52;13.90;;;7.95;;
71777;SDS011;59609;52.430;4.668;2023-08-24T05:49:17;12.95;;;7.78;;
71777;SDS011;59609;52.430;4.668;2023-08-24T05:51:43;13.48;;;8.38;;
71777;SDS011;59609;52.430;4.668;2023-08-24T05:54:08;13.75;;;8.00;;
71777;SDS011;59609;52.430;4.668;2023-08-24T05:56:34;16.45;;;8.48;;
71777;SDS011;59609;52.430;4.668;2023-08-24T05:58:59;14.40;;;8.20;;
71777;SDS011;59609;52.430;4.668;2023-08-24T06:01:25;12.85;;;7.95;;
71777;SDS011;59609;52.430;4.668;2023-08-24T06:03:51;15.10;;;7.90;;
71777;SDS011;59609;52.430;4.668;2023-08-24T06:06:16;13.82;;;7.28;;
71777;SDS011;59609;52.430;4.668;2023-08-24T06:08:43;13.68;;;6.78;;
71777;SDS011;59609;52.430;4.668;2023-08-24T06:11:08;11.18;;;7.10;;
71777;SDS011;59609;52.430;4.668;2023-08-24T06:13:34;12.00;;;6.43;;
71777;SDS011;59609;52.430;4.668;2023-08-24T06:16:00;11.50;;;6.90;;
71777;SDS011;59609;52.430;4.668;2023-08-24T06:18:25;10.13;;;6.00;;
71777;SDS011;59609;52.430;4.668;2023-08-24T06:20:51;9.43;;;6.55;;
71777;SDS011;59609;52.430;4.668;2023-08-24T06:23:16;10.27;;;5.95;;
71777;SDS011;59609;52.430;4.668;2023-08-24T06:25:42;10.05;;;6.22;;
71777;SDS011;59609;52.430;4.668;2023-08-24T06:28:08;11.20;;;6.25;;
71777;SDS011;59609;52.430;4.668;2023-08-24T06:30:37;10.63;;;7.30;;
71777;SDS011;59609;52.430;4.668;2023-08-24T06:33:04;10.70;;;7.00;;
71777;SDS011;59609;52.430;4.668;2023-08-24T06:35:30;10.55;;;6.53;;
71777;SDS011;59609;52.430;4.668;2023-08-24T06:37:56;17.48;;;6.07;;
71777;SDS011;59609;52.430;4.668;2023-08-24T06:40:21;9.93;;;6.22;;
71777;SDS011;59609;52.430;4.668;2023-08-24T06:42:47;9.27;;;6.07;;
71777;SDS011;59609;52.430;4.668;2023-08-24T06:45:12;10.45;;;6.22;;
71777;SDS011;59609;52.430;4.668;2023-08-24T06:47:39;9.85;;;6.75;;
71777;SDS011;59609;52.430;4.668;2023-08-24T06:50:05;7.95;;;6.53;;
71777;SDS011;59609;52.430;4.668;2023-08-24T06:52:31;12.88;;;7.15;;
71777;SDS011;59609;52.430;4.668;2023-08-24T06:54:57;11.52;;;5.72;;
71777;SDS011;59609;52.430;4.668;2023-08-24T06:57:22;8.77;;;5.53;;
71777;SDS011;59609;52.430;4.668;2023-08-24T06:59:48;10.55;;;5.47;;
71777;SDS011;59609;52.430;4.668;2023-08-24T07:02:15;10.55;;;5.72;;
71777;SDS011;59609;52.430;4.668;2023-08-24T07:04:42;11.45;;;5.75;;
71777;SDS011;59609;52.430;4.668;2023-08-24T07:07:08;11.60;;;5.65;;
71777;SDS011;59609;52.430;4.668;2023-08-24T07:09:34;10.25;;;6.45;;
71777;SDS011;59609;52.430;4.668;2023-08-24T07:12:00;13.00;;;6.40;;
71777;SDS011;59609;52.430;4.668;2023-08-24T07:14:27;9.18;;;5.97;;
71777;SDS011;59609;52.430;4.668;2023-08-24T07:16:52;9.15;;;5.63;;
71777;SDS011;59609;52.430;4.668;2023-08-24T07:19:17;9.30;;;6.18;;
71777;SDS011;59609;52.430;4.668;2023-08-24T07:21:43;10.60;;;6.18;;
71777;SDS011;59609;52.430;4.668;2023-08-24T07:24:08;9.35;;;5.70;;
71777;SDS011;59609;52.430;4.668;2023-08-24T07:26:33;14.55;;;6.95;;
71777;SDS011;59609;52.430;4.668;2023-08-24T07:28:59;8.57;;;5.70;;
71777;SDS011;59609;52.430;4.668;2023-08-24T07:31:24;8.45;;;5.95;;
71777;SDS011;59609;52.430;4.668;2023-08-24T07:33:50;9.90;;;7.75;;
71777;SDS011;59609;52.430;4.668;2023-08-24T07:36:15;10.65;;;6.38;;
71777;SDS011;59609;52.430;4.668;2023-08-24T07:38:41;10.27;;;6.63;;
71777;SDS011;59609;52.430;4.668;2023-08-24T07:41:06;10.00;;;6.32;;
71777;SDS011;59609;52.430;4.668;2023-08-24T07:43:34;14.15;;;6.63;;
71777;SDS011;59609;52.430;4.668;2023-08-24T07:46:00;12.77;;;6.50;;
71777;SDS011;59609;52.430;4.668;2023-08-24T07:48:25;13.75;;;6.95;;
71777;SDS011;59609;52.430;4.668;2023-08-24T07:50:51;19.92;;;7.28;;
71777;SDS011;59609;52.430;4.668;2023-08-24T07:53:16;10.02;;;6.68;;
71777;SDS011;59609;52.430;4.668;2023-08-24T07:55:42;8.98;;;6.45;;
71777;SDS011;59609;52.430;4.668;2023-08-24T07:58:08;14.07;;;7.07;;
71777;SDS011;59609;52.430;4.668;2023-08-24T08:00:33;11.35;;;6.65;;
71777;SDS011;59609;52.430;4.668;2023-08-24T08:02:59;11.60;;;6.63;;
71777;SDS011;59609;52.430;4.668;2023-08-24T08:05:25;9.60;;;6.18;;
71777;SDS011;59609;52.430;4.668;2023-08-24T08:07:51;10.20;;;6.60;;
71777;SDS011;59609;52.430;4.668;2023-08-24T08:10:17;10.02;;;6.55;;
71777;SDS011;59609;52.430;4.668;2023-08-24T08:12:45;9.95;;;7.25;;
71777;SDS011;59609;52.430;4.668;2023-08-24T08:15:10;11.98;;;6.07;;
71777;SDS011;59609;52.430;4.668;2023-08-24T08:17:35;10.95;;;6.07;;
71777;SDS011;59609;52.430;4.668;2023-08-24T08:20:01;9.00;;;6.35;;
71777;SDS011;59609;52.430;4.668;2023-08-24T08:22:30;11.30;;;6.18;;
71777;SDS011;59609;52.430;4.668;2023-08-24T08:25:03;10.73;;;6.15;;
71777;SDS011;59609;52.430;4.668;2023-08-24T08:27:30;8.90;;;5.82;;
71777;SDS011;59609;52.430;4.668;2023-08-24T08:29:55;7.65;;;6.40;;
71777;SDS011;59609;52.430;4.668;2023-08-24T08:32:20;12.50;;;6.88;;
71777;SDS011;59609;52.430;4.668;2023-08-24T08:34:46;13.55;;;6.72;;
71777;SDS011;59609;52.430;4.668;2023-08-24T08:37:11;14.70;;;7.28;;
71777;SDS011;59609;52.430;4.668;2023-08-24T08:39:37;10.32;;;6.60;;
71777;SDS011;59609;52.430;4.668;2023-08-24T08:42:13;13.40;;;7.20;;
71777;SDS011;59609;52.430;4.668;2023-08-24T08:44:39;9.82;;;6.70;;
71777;SDS011;59609;52.430;4.668;2023-08-24T08:47:07;10.48;;;6.10;;
71777;SDS011;59609;52.430;4.668;2023-08-24T08:49:33;10.85;;;6.22;;
71777;SDS011;59609;52.430;4.668;2023-08-24T08:52:00;13.57;;;6.00;;
71777;SDS011;59609;52.430;4.668;2023-08-24T08:54:26;16.30;;;7.20;;
71777;SDS011;59609;52.430;4.668;2023-08-24T08:56:52;13.45;;;5.65;;
71777;SDS011;59609;52.430;4.668;2023-08-24T08:59:17;10.40;;;6.00;;
71777;SDS011;59609;52.430;4.668;2023-08-24T09:01:43;8.25;;;6.68;;
71777;SDS011;59609;52.430;4.668;2023-08-24T09:04:12;10.05;;;5.40;;
71777;SDS011;59609;52.430;4.668;2023-08-24T09:06:38;8.88;;;5.70;;
71777;SDS011;59609;52.430;4.668;2023-08-24T09:09:04;10.95;;;5.80;;
71777;SDS011;59609;52.430;4.668;2023-08-24T09:11:31;8.82;;;5.40;;
71777;SDS011;59609;52.430;4.668;2023-08-24T09:13:58;8.93;;;5.50;;
71777;SDS011;59609;52.430;4.668;2023-08-24T09:16:23;8.80;;;5.55;;
71777;SDS011;59609;52.430;4.668;2023-08-24T09:18:54;10.38;;;5.93;;
71777;SDS011;59609;52.430;4.668;2023-08-24T09:21:19;11.40;;;5.45;;
71777;SDS011;59609;52.430;4.668;2023-08-24T09:23:54;7.80;;;5.53;;
71777;SDS011;59609;52.430;4.668;2023-08-24T09:26:27;10.23;;;5.60;;
71777;SDS011;59609;52.430;4.668;2023-08-24T09:28:56;12.00;;;6.68;;
71777;SDS011;59609;52.430;4.668;2023-08-24T09:31:23;15.20;;;5.55;;
71777;SDS011;59609;52.430;4.668;2023-08-24T09:34:00;9.55;;;5.63;;
71777;SDS011;59609;52.430;4.668;2023-08-24T09:36:26;10.13;;;6.43;;
71777;SDS011;59609;52.430;4.668;2023-08-24T09:38:51;10.77;;;6.75;;
71777;SDS011;59609;52.430;4.668;2023-08-24T09:41:17;10.80;;;6.97;;
71777;SDS011;59609;52.430;4.668;2023-08-24T09:43:42;14.85;;;6.65;;
71777;SDS011;59609;52.430;4.668;2023-08-24T09:46:08;12.40;;;7.40;;
71777;SDS011;59609;52.430;4.668;2023-08-24T09:48:33;11.02;;;6.60;;
71777;SDS011;59609;52.430;4.668;2023-08-24T09:51:00;10.73;;;6.90;;
71777;SDS011;59609;52.430;4.668;2023-08-24T09:53:30;9.50;;;6.70;;
71777;SDS011;59609;52.430;4.668;2023-08-24T09:56:03;13.45;;;6.78;;
71777;SDS011;59609;52.430;4.668;2023-08-24T09:58:32;10.82;;;6.70;;
71777;SDS011;59609;52.430;4.668;2023-08-24T10:00:59;12.13;;;6.97;;
71777;SDS011;59609;52.430;4.668;2023-08-24T10:03:27;13.20;;;7.15;;
71777;SDS011;59609;52.430;4.668;2023-08-24T10:05:54;10.82;;;7.20;;
71777;SDS011;59609;52.430;4.668;2023-08-24T10:08:35;12.02;;;8.00;;
71777;SDS011;59609;52.430;4.668;2023-08-24T10:11:02;13.57;;;8.93;;
71777;SDS011;59609;52.430;4.668;2023-08-24T10:16:09;14.93;;;9.95;;
71777;SDS011;59609;52.430;4.668;2023-08-24T10:18:38;18.70;;;10.13;;
71777;SDS011;59609;52.430;4.668;2023-08-24T10:21:05;19.02;;;9.75;;
71777;SDS011;59609;52.430;4.668;2023-08-24T10:23:32;17.55;;;10.45;;
71777;SDS011;59609;52.430;4.668;2023-08-24T10:26:03;23.25;;;10.52;;
71777;SDS011;59609;52.430;4.668;2023-08-24T10:28:32;14.48;;;9.77;;
71777;SDS011;59609;52.430;4.668;2023-08-24T10:30:58;17.95;;;12.00;;
71777;SDS011;59609;52.430;4.668;2023-08-24T10:33:24;21.95;;;14.18;;
71777;SDS011;59609;52.430;4.668;2023-08-24T10:35:51;22.63;;;13.95;;
71777;SDS011;59609;52.430;4.668;2023-08-24T10:38:24;20.90;;;13.65;;
71777;SDS011;59609;52.430;4.668;2023-08-24T10:40:54;17.08;;;13.27;;
71777;SDS011;59609;52.430;4.668;2023-08-24T10:43:26;22.98;;;14.27;;
71777;SDS011;59609;52.430;4.668;2023-08-24T10:49:29;26.75;;;17.40;;
71777;SDS011;59609;52.430;4.668;2023-08-24T10:51:54;28.73;;;18.70;;
71777;SDS011;59609;52.430;4.668;2023-08-24T10:54:29;34.13;;;20.65;;
71777;SDS011;59609;52.430;4.668;2023-08-24T10:56:56;28.40;;;20.65;;
71777;SDS011;59609;52.430;4.668;2023-08-24T10:59:23;34.30;;;21.35;;
71777;SDS011;59609;52.430;4.668;2023-08-24T11:01:59;32.35;;;21.98;;
71777;SDS011;59609;52.430;4.668;2023-08-24T11:04:26;30.90;;;22.92;;
71777;SDS011;59609;52.430;4.668;2023-08-24T11:06:56;29.90;;;20.40;;
71777;SDS011;59609;52.430;4.668;2023-08-24T11:09:24;32.78;;;21.73;;
71777;SDS011;59609;52.430;4.668;2023-08-24T11:14:26;30.63;;;22.35;;
71777;SDS011;59609;52.430;4.668;2023-08-24T11:16:52;27.48;;;22.92;;
71777;SDS011;59609;52.430;4.668;2023-08-24T11:19:19;34.30;;;23.92;;
71777;SDS011;59609;52.430;4.668;2023-08-24T11:21:45;31.92;;;22.92;;
71777;SDS011;59609;52.430;4.668;2023-08-24T11:24:15;28.02;;;21.27;;
71777;SDS011;59609;52.430;4.668;2023-08-24T11:26:43;28.00;;;21.27;;
71777;SDS011;59609;52.430;4.668;2023-08-24T11:29:10;25.48;;;19.88;;
71777;SDS011;59609;52.430;4.668;2023-08-24T11:31:36;29.00;;;20.92;;
71777;SDS011;59609;52.430;4.668;2023-08-24T11:34:02;26.95;;;19.67;;
71777;SDS011;59609;52.430;4.668;2023-08-24T11:36:29;23.67;;;18.70;;
71777;SDS011;59609;52.430;4.668;2023-08-24T11:39:06;22.63;;;17.33;;
71777;SDS011;59609;52.430;4.668;2023-08-24T11:41:31;21.92;;;17.05;;
71777;SDS011;59609;52.430;4.668;2023-08-24T11:44:00;25.13;;;18.67;;
71777;SDS011;59609;52.430;4.668;2023-08-24T11:46:27;20.05;;;16.10;;
71777;SDS011;59609;52.430;4.668;2023-08-24T11:48:54;20.77;;;15.93;;
71777;SDS011;59609;52.430;4.668;2023-08-24T11:51:19;20.92;;;15.73;;
71777;SDS011;59609;52.430;4.668;2023-08-24T11:53:47;20.63;;;15.00;;
71777;SDS011;59609;52.430;4.668;2023-08-24T11:56:14;22.23;;;15.55;;
71777;SDS011;59609;52.430;4.668;2023-08-24T11:58:42;21.60;;;16.27;;
71777;SDS011;59609;52.430;4.668;2023-08-24T12:01:12;21.48;;;15.02;;
71777;SDS011;59609;52.430;4.668;2023-08-24T12:03:38;18.98;;;14.80;;
71777;SDS011;59609;52.430;4.668;2023-08-24T12:06:14;17.75;;;14.35;;
71777;SDS011;59609;52.430;4.668;2023-08-24T12:08:41;15.57;;;13.60;;
71777;SDS011;59609;52.430;4.668;2023-08-24T12:11:12;14.85;;;12.18;;
71777;SDS011;59609;52.430;4.668;2023-08-24T12:13:42;17.33;;;15.27;;
71777;SDS011;59609;52.430;4.668;2023-08-24T12:16:09;16.30;;;12.82;;
71777;SDS011;59609;52.430;4.668;2023-08-24T12:18:35;16.60;;;14.38;;
71777;SDS011;59609;52.430;4.668;2023-08-24T12:21:11;12.55;;;10.90;;
71777;SDS011;59609;52.430;4.668;2023-08-24T12:23:39;14.43;;;12.93;;
71777;SDS011;59609;52.430;4.668;2023-08-24T12:26:04;12.20;;;10.02;;
71777;SDS011;59609;52.430;4.668;2023-08-24T12:28:32;10.80;;;9.27;;
71777;SDS011;59609;52.430;4.668;2023-08-24T12:30:59;10.60;;;8.65;;
71777;SDS011;59609;52.430;4.668;2023-08-24T12:33:29;10.10;;;9.07;;
71777;SDS011;59609;52.430;4.668;2023-08-24T12:35:56;9.15;;;8.32;;
71777;SDS011;59609;52.430;4.668;2023-08-24T12:38:24;11.38;;;10.20;;
71777;SDS011;59609;52.430;4.668;2023-08-24T12:40:50;10.82;;;9.18;;
71777;SDS011;59609;52.430;4.668;2023-08-24T12:43:17;9.02;;;8.02;;
71777;SDS011;59609;52.430;4.668;2023-08-24T12:45:42;12.75;;;11.48;;
71777;SDS011;59609;52.430;4.668;2023-08-24T12:48:08;12.85;;;11.55;;
71777;SDS011;59609;52.430;4.668;2023-08-24T12:50:34;12.75;;;11.45;;
71777;SDS011;59609;52.430;4.668;2023-08-24T12:53:00;10.95;;;9.70;;
71777;SDS011;59609;52.430;4.668;2023-08-24T12:55:26;11.13;;;9.95;;
71777;SDS011;59609;52.430;4.668;2023-08-24T12:57:54;10.30;;;9.13;;
71777;SDS011;59609;52.430;4.668;2023-08-24T13:00:21;9.32;;;8.43;;
71777;SDS011;59609;52.430;4.668;2023-08-24T13:02:47;11.80;;;10.60;;
71777;SDS011;59609;52.430;4.668;2023-08-24T13:05:14;13.20;;;9.90;;
71777;SDS011;59609;52.430;4.668;2023-08-24T13:07:39;12.57;;;10.43;;
71777;SDS011;59609;52.430;4.668;2023-08-24T13:10:05;12.65;;;11.52;;
71777;SDS011;59609;52.430;4.668;2023-08-24T13:12:31;11.35;;;10.18;;
71777;SDS011;59609;52.430;4.668;2023-08-24T13:14:57;11.20;;;10.00;;
71777;SDS011;59609;52.430;4.668;2023-08-24T13:17:22;15.07;;;10.75;;
71777;SDS011;59609;52.430;4.668;2023-08-24T13:19:48;11.82;;;10.63;;
71777;SDS011;59609;52.430;4.668;2023-08-24T13:22:16;12.15;;;10.95;;
71777;SDS011;59609;52.430;4.668;2023-08-24T13:24:42;10.43;;;9.10;;
71777;SDS011;59609;52.430;4.668;2023-08-24T13:27:09;10.93;;;9.85;;
71777;SDS011;59609;52.430;4.668;2023-08-24T13:29:38;9.23;;;8.02;;
71777;SDS011;59609;52.430;4.668;2023-08-24T13:32:04;7.90;;;7.15;;
71777;SDS011;59609;52.430;4.668;2023-08-24T13:34:30;10.15;;;7.18;;
71777;SDS011;59609;52.430;4.668;2023-08-24T13:36:56;9.95;;;7.32;;
71777;SDS011;59609;52.430;4.668;2023-08-24T13:39:22;10.48;;;8.15;;
71777;SDS011;59609;52.430;4.668;2023-08-24T13:41:47;11.25;;;8.38;;
71777;SDS011;59609;52.430;4.668;2023-08-24T13:44:13;9.27;;;7.85;;
71777;SDS011;59609;52.430;4.668;2023-08-24T13:46:38;8.18;;;7.03;;
71777;SDS011;59609;52.430;4.668;2023-08-24T13:49:04;6.57;;;5.97;;
71777;SDS011;59609;52.430;4.668;2023-08-24T13:51:29;9.18;;;8.20;;
71777;SDS011;59609;52.430;4.668;2023-08-24T13:53:54;7.13;;;6.43;;
71777;SDS011;59609;52.430;4.668;2023-08-24T13:56:20;8.88;;;7.70;;
71777;SDS011;59609;52.430;4.668;2023-08-24T13:58:45;9.82;;;7.05;;
71777;SDS011;59609;52.430;4.668;2023-08-24T14:01:11;9.05;;;8.15;;
71777;SDS011;59609;52.430;4.668;2023-08-24T14:03:38;9.48;;;6.63;;
71777;SDS011;59609;52.430;4.668;2023-08-24T14:06:05;7.88;;;6.22;;
71777;SDS011;59609;52.430;4.668;2023-08-24T14:08:30;9.50;;;6.13;;
71777;SDS011;59609;52.430;4.668;2023-08-24T14:10:56;7.35;;;5.80;;
71777;SDS011;59609;52.430;4.668;2023-08-24T14:13:21;9.95;;;6.97;;
71777;SDS011;59609;52.430;4.668;2023-08-24T14:15:50;9.85;;;7.65;;
71777;SDS011;59609;52.430;4.668;2023-08-24T14:18:15;14.52;;;7.97;;
71777;SDS011;59609;52.430;4.668;2023-08-24T14:20:41;10.63;;;7.65;;
71777;SDS011;59609;52.430;4.668;2023-08-24T14:23:07;11.02;;;7.97;;
71777;SDS011;59609;52.430;4.668;2023-08-24T14:25:33;7.72;;;6.63;;
71777;SDS011;59609;52.430;4.668;2023-08-24T14:27:58;10.98;;;7.55;;
71777;SDS011;59609;52.430;4.668;2023-08-24T14:30:24;8.80;;;7.07;;
71777;SDS011;59609;52.430;4.668;2023-08-24T14:32:50;10.20;;;7.88;;
71777;SDS011;59609;52.430;4.668;2023-08-24T14:35:15;11.43;;;9.93;;
71777;SDS011;59609;52.430;4.668;2023-08-24T14:37:41;12.00;;;9.20;;
71777;SDS011;59609;52.430;4.668;2023-08-24T14:40:06;13.95;;;9.82;;
71777;SDS011;59609;52.430;4.668;2023-08-24T14:42:32;12.43;;;8.70;;
71777;SDS011;59609;52.430;4.668;2023-08-24T14:44:57;12.55;;;10.25;;
71777;SDS011;59609;52.430;4.668;2023-08-24T14:47:23;14.40;;;10.70;;
71777;SDS011;59609;52.430;4.668;2023-08-24T14:49:48;11.43;;;9.48;;
71777;SDS011;59609;52.430;4.668;2023-08-24T14:52:14;14.73;;;10.48;;
71777;SDS011;59609;52.430;4.668;2023-08-24T14:54:39;13.80;;;9.60;;